aviador You're here:

KMQY Decoded Metar

SMYRNA in TN, USA
Report Time2018-05-23 15:56:00
UTC Time2018-05-23 16:29:01
Flight Rules vfr VFR
Wind050° at 03 kt
W.Decomp.*RWY 01: 2.2 kt HW 2.0 kt RCW
RWY 14: 0.1 kt HW 3 kt LCW
W.Rank050° ranks 29
Current wind is below 050° avg. (6.0)
Visibility9999 m
Phenomena:N/A
Clouds:Few 050 Hf
Expected CloudBase > 2,000 ft AGL from Temp-Dew spread
CeilingNone
Temp27°C (ISA +13)
Dew Point22°C (74% RH)
Heat Index29.2°C
QNH1021 hPa
Density Alt2,136 ft
Elevation545 ft
Report Wrong Elevation
Raw Report
METAR KMQY 231556Z 05003KT 10SM FEW050 27/22 A3014 RMK AO2 SLP105 T02670222=

Extra information for KMQY:More info

Metar Taf Metar & Taf Last 4 Metars F.Rules Stats Wind Profile Meteogram Temp Stats Airport Information Weather charts Add Link Nearby VenuesMetar ALERT Operation Metar Decoded Social comments

AIRNAV info for KMQY